sensor_id;sensor_type;location;lat;lon;timestamp;pressure;altitude;pressure_sealevel;temperature;humidity
71966;BME280;59836;52.132;5.442;2023-05-31T00:02:20;102743.91;;;12.47;80.88
71966;BME280;59836;52.132;5.442;2023-05-31T00:04:46;102739.53;;;12.46;81.05
71966;BME280;59836;52.132;5.442;2023-05-31T00:07:13;102747.97;;;12.44;80.72
71966;BME280;59836;52.132;5.442;2023-05-31T00:09:39;102739.41;;;12.40;81.42
71966;BME280;59836;52.132;5.442;2023-05-31T00:12:06;102744.72;;;12.35;81.26
71966;BME280;59836;52.132;5.442;2023-05-31T00:14:33;102742.47;;;12.32;81.48
71966;BME280;59836;52.132;5.442;2023-05-31T00:16:59;102740.34;;;12.34;81.55
71966;BME280;59836;52.132;5.442;2023-05-31T00:19:28;102743.91;;;12.35;81.38
71966;BME280;59836;52.132;5.442;2023-05-31T00:21:55;102740.34;;;12.34;81.49
71966;BME280;59836;52.132;5.442;2023-05-31T00:24:22;102747.91;;;12.32;81.74
71966;BME280;59836;52.132;5.442;2023-05-31T00:26:48;102740.00;;;12.31;81.44
71966;BME280;59836;52.132;5.442;2023-05-31T00:29:15;102748.63;;;12.28;81.38
71966;BME280;59836;52.132;5.442;2023-05-31T00:31:41;102745.91;;;12.28;81.46
71966;BME280;59836;52.132;5.442;2023-05-31T00:34:08;102745.06;;;12.27;81.51
71966;BME280;59836;52.132;5.442;2023-05-31T00:36:36;102744.34;;;12.20;81.91
71966;BME280;59836;52.132;5.442;2023-05-31T00:39:03;102747.06;;;12.20;81.92
71966;BME280;59836;52.132;5.442;2023-05-31T00:41:29;102737.84;;;12.21;81.57
71966;BME280;59836;52.132;5.442;2023-05-31T00:43:55;102741.63;;;12.20;81.58
71966;BME280;59836;52.132;5.442;2023-05-31T00:46:28;102740.22;;;12.17;82.08
71966;BME280;59836;52.132;5.442;2023-05-31T00:48:55;102741.06;;;12.18;81.71
71966;BME280;59836;52.132;5.442;2023-05-31T00:51:22;102747.56;;;12.17;81.90
71966;BME280;59836;52.132;5.442;2023-05-31T00:53:51;102741.53;;;12.15;81.87
71966;BME280;59836;52.132;5.442;2023-05-31T00:56:18;102747.78;;;12.15;81.85
71966;BME280;59836;52.132;5.442;2023-05-31T00:58:45;102744.47;;;12.13;81.75
71966;BME280;59836;52.132;5.442;2023-05-31T01:01:15;102745.31;;;12.14;81.46
71966;BME280;59836;52.132;5.442;2023-05-31T01:03:41;102739.03;;;12.13;81.55
71966;BME280;59836;52.132;5.442;2023-05-31T01:06:10;102748.25;;;12.12;81.62
71966;BME280;59836;52.132;5.442;2023-05-31T01:08:37;102741.41;;;12.09;81.84
71966;BME280;59836;52.132;5.442;2023-05-31T01:11:26;102744.13;;;12.09;81.98
71966;BME280;59836;52.132;5.442;2023-05-31T01:14:08;102748.38;;;12.05;81.62
71966;BME280;59836;52.132;5.442;2023-05-31T01:16:46;102751.09;;;12.05;81.55
71966;BME280;59836;52.132;5.442;2023-05-31T01:19:24;102747.59;;;11.98;81.81
71966;BME280;59836;52.132;5.442;2023-05-31T01:22:33;102751.97;;;11.99;81.79
71966;BME280;59836;52.132;5.442;2023-05-31T01:27:47;102754.91;;;11.98;81.93
71966;BME280;59836;52.132;5.442;2023-05-31T01:30:16;102755.38;;;11.94;82.04
71966;BME280;59836;52.132;5.442;2023-05-31T01:32:44;102744.00;;;11.86;82.47
71966;BME280;59836;52.132;5.442;2023-05-31T01:35:13;102735.25;;;11.84;82.48
71966;BME280;59836;52.132;5.442;2023-05-31T01:37:40;102736.31;;;11.82;82.12
71966;BME280;59836;52.132;5.442;2023-05-31T01:40:07;102734.66;;;11.81;82.51
71966;BME280;59836;52.132;5.442;2023-05-31T01:42:35;102734.06;;;11.79;82.59
71966;BME280;59836;52.132;5.442;2023-05-31T01:45:02;102746.59;;;11.80;82.56
71966;BME280;59836;52.132;5.442;2023-05-31T01:47:30;102743.28;;;11.78;82.33
71966;BME280;59836;52.132;5.442;2023-05-31T01:49:57;102748.13;;;11.76;82.37
71966;BME280;59836;52.132;5.442;2023-05-31T01:52:25;102741.22;;;11.74;82.52
71966;BME280;59836;52.132;5.442;2023-05-31T01:54:52;102746.06;;;11.72;82.34
71966;BME280;59836;52.132;5.442;2023-05-31T01:57:19;102743.59;;;11.70;82.76
71966;BME280;59836;52.132;5.442;2023-05-31T01:59:46;102746.88;;;11.60;82.60
71966;BME280;59836;52.132;5.442;2023-05-31T02:02:13;102740.25;;;11.56;82.82
71966;BME280;59836;52.132;5.442;2023-05-31T02:04:39;102737.75;;;11.55;82.98
71966;BME280;59836;52.132;5.442;2023-05-31T02:07:06;102738.19;;;11.51;83.11
71966;BME280;59836;52.132;5.442;2023-05-31T02:09:35;102737.13;;;11.52;83.10
71966;BME280;59836;52.132;5.442;2023-05-31T02:12:01;102734.41;;;11.52;82.92
71966;BME280;59836;52.132;5.442;2023-05-31T02:14:27;102729.22;;;11.51;82.96
71966;BME280;59836;52.132;5.442;2023-05-31T02:16:54;102728.16;;;11.52;83.17
71966;BME280;59836;52.132;5.442;2023-05-31T02:19:20;102727.31;;;11.51;82.89
71966;BME280;59836;52.132;5.442;2023-05-31T02:21:52;102728.25;;;11.45;83.02
71966;BME280;59836;52.132;5.442;2023-05-31T02:24:18;102733.47;;;11.47;83.08
71966;BME280;59836;52.132;5.442;2023-05-31T02:26:45;102742.88;;;11.44;83.09
71966;BME280;59836;52.132;5.442;2023-05-31T02:29:11;102739.56;;;11.42;83.25
71966;BME280;59836;52.132;5.442;2023-05-31T02:31:38;102744.63;;;11.39;83.40
71966;BME280;59836;52.132;5.442;2023-05-31T02:34:05;102738.81;;;11.35;83.16
71966;BME280;59836;52.132;5.442;2023-05-31T02:36:32;102743.66;;;11.33;83.07
71966;BME280;59836;52.132;5.442;2023-05-31T02:38:58;102740.31;;;11.31;83.15
71966;BME280;59836;52.132;5.442;2023-05-31T02:41:25;102735.81;;;11.25;83.43
71966;BME280;59836;52.132;5.442;2023-05-31T02:43:51;102729.75;;;11.22;83.51
71966;BME280;59836;52.132;5.442;2023-05-31T02:46:18;102727.91;;;11.23;83.55
71966;BME280;59836;52.132;5.442;2023-05-31T02:48:44;102729.75;;;11.22;83.15
71966;BME280;59836;52.132;5.442;2023-05-31T02:51:11;102726.84;;;11.24;83.24
71966;BME280;59836;52.132;5.442;2023-05-31T02:53:37;102718.31;;;11.20;83.24
71966;BME280;59836;52.132;5.442;2023-05-31T02:56:04;102730.81;;;11.21;83.68
71966;BME280;59836;52.132;5.442;2023-05-31T02:58:30;102729.75;;;11.22;83.38
71966;BME280;59836;52.132;5.442;2023-05-31T03:00:57;102727.28;;;11.21;83.40
71966;BME280;59836;52.132;5.442;2023-05-31T03:03:23;102716.63;;;11.19;83.19
71966;BME280;59836;52.132;5.442;2023-05-31T03:05:50;102726.91;;;11.17;83.41
71966;BME280;59836;52.132;5.442;2023-05-31T03:08:16;102717.09;;;11.16;83.34
71966;BME280;59836;52.132;5.442;2023-05-31T03:10:43;102719.22;;;11.14;83.35
71966;BME280;59836;52.132;5.442;2023-05-31T03:13:10;102724.44;;;11.16;83.38
71966;BME280;59836;52.132;5.442;2023-05-31T03:15:37;102720.25;;;11.13;83.44
71966;BME280;59836;52.132;5.442;2023-05-31T03:18:04;102722.25;;;11.06;83.46
71966;BME280;59836;52.132;5.442;2023-05-31T03:20:31;102729.78;;;11.04;83.58
71966;BME280;59836;52.132;5.442;2023-05-31T03:22:59;102708.88;;;11.04;83.92
71966;BME280;59836;52.132;5.442;2023-05-31T03:25:26;102710.34;;;11.07;83.97
71966;BME280;59836;52.132;5.442;2023-05-31T03:27:52;102729.56;;;11.05;83.26
71966;BME280;59836;52.132;5.442;2023-05-31T03:30:19;102726.69;;;11.00;83.45
71966;BME280;59836;52.132;5.442;2023-05-31T03:32:45;102725.72;;;10.95;83.76
71966;BME280;59836;52.132;5.442;2023-05-31T03:35:12;102715.47;;;10.97;83.89
71966;BME280;59836;52.132;5.442;2023-05-31T03:37:38;102717.94;;;10.98;83.78
71966;BME280;59836;52.132;5.442;2023-05-31T03:40:05;102721.72;;;10.97;84.03
71966;BME280;59836;52.132;5.442;2023-05-31T03:42:32;102730.25;;;11.01;83.73
71966;BME280;59836;52.132;5.442;2023-05-31T03:44:58;102726.31;;;10.97;83.77
71966;BME280;59836;52.132;5.442;2023-05-31T03:47:25;102733.00;;;10.94;83.82
71966;BME280;59836;52.132;5.442;2023-05-31T03:49:52;102739.28;;;10.95;84.31
71966;BME280;59836;52.132;5.442;2023-05-31T03:52:18;102733.88;;;10.95;84.11
71966;BME280;59836;52.132;5.442;2023-05-31T03:54:45;102732.19;;;10.93;84.24
71966;BME280;59836;52.132;5.442;2023-05-31T03:57:13;102735.56;;;10.89;84.25
71966;BME280;59836;52.132;5.442;2023-05-31T03:59:39;102746.44;;;10.89;84.18
71966;BME280;59836;52.132;5.442;2023-05-31T04:02:06;102746.06;;;10.85;84.59
71966;BME280;59836;52.132;5.442;2023-05-31T04:04:32;102744.41;;;10.84;84.38
71966;BME280;59836;52.132;5.442;2023-05-31T04:06:59;102750.66;;;10.85;84.57
71966;BME280;59836;52.132;5.442;2023-05-31T04:09:26;102749.38;;;10.87;84.08
71966;BME280;59836;52.132;5.442;2023-05-31T04:11:55;102746.44;;;10.89;84.49
71966;BME280;59836;52.132;5.442;2023-05-31T04:14:22;102748.09;;;10.90;84.54
71966;BME280;59836;52.132;5.442;2023-05-31T04:16:48;102740.19;;;10.88;84.68
71966;BME280;59836;52.132;5.442;2023-05-31T04:19:15;102745.22;;;10.85;84.60
71966;BME280;59836;52.132;5.442;2023-05-31T04:21:42;102744.41;;;10.84;84.74
71966;BME280;59836;52.132;5.442;2023-05-31T04:24:08;102742.75;;;10.83;85.15
71966;BME280;59836;52.132;5.442;2023-05-31T04:26:35;102741.91;;;10.83;84.96
71966;BME280;59836;52.132;5.442;2023-05-31T04:29:01;102744.41;;;10.84;85.33
71966;BME280;59836;52.132;5.442;2023-05-31T04:31:28;102736.88;;;10.86;85.22
71966;BME280;59836;52.132;5.442;2023-05-31T04:34:14;102740.56;;;10.92;85.01
71966;BME280;59836;52.132;5.442;2023-05-31T04:36:45;102738.00;;;10.97;84.53
71966;BME280;59836;52.132;5.442;2023-05-31T04:39:16;102740.50;;;10.99;84.93
71966;BME280;59836;52.132;5.442;2023-05-31T04:41:43;102740.88;;;11.02;85.14
71966;BME280;59836;52.132;5.442;2023-05-31T04:44:10;102746.28;;;11.02;84.92
71966;BME280;59836;52.132;5.442;2023-05-31T04:46:36;102750.91;;;11.02;84.79
71966;BME280;59836;52.132;5.442;2023-05-31T04:49:03;102751.72;;;11.02;85.02
71966;BME280;59836;52.132;5.442;2023-05-31T04:51:30;102750.47;;;11.05;84.93
71966;BME280;59836;52.132;5.442;2023-05-31T04:53:58;102747.13;;;11.03;85.28
71966;BME280;59836;52.132;5.442;2023-05-31T04:56:25;102741.25;;;11.06;85.46
71966;BME280;59836;52.132;5.442;2023-05-31T04:58:51;102739.16;;;11.08;85.30
71966;BME280;59836;52.132;5.442;2023-05-31T05:01:18;102743.06;;;11.12;85.05
71966;BME280;59836;52.132;5.442;2023-05-31T05:03:44;102755.56;;;11.13;85.11
71966;BME280;59836;52.132;5.442;2023-05-31T05:06:13;102750.75;;;11.15;85.51
71966;BME280;59836;52.132;5.442;2023-05-31T05:08:40;102760.53;;;11.16;85.38
71966;BME280;59836;52.132;5.442;2023-05-31T05:11:07;102753.25;;;11.17;85.46
71966;BME280;59836;52.132;5.442;2023-05-31T05:13:34;102746.50;;;11.19;85.34
71966;BME280;59836;52.132;5.442;2023-05-31T05:16:00;102754.66;;;11.19;85.09
71966;BME280;59836;52.132;5.442;2023-05-31T05:18:27;102753.16;;;11.23;85.37
71966;BME280;59836;52.132;5.442;2023-05-31T05:20:53;102748.94;;;11.28;85.15
71966;BME280;59836;52.132;5.442;2023-05-31T05:23:20;102745.31;;;11.34;85.03
71966;BME280;59836;52.132;5.442;2023-05-31T05:25:47;102751.78;;;11.33;85.38
71966;BME280;59836;52.132;5.442;2023-05-31T05:28:14;102745.91;;;11.36;85.61
71966;BME280;59836;52.132;5.442;2023-05-31T05:30:40;102751.03;;;11.44;85.26
71966;BME280;59836;52.132;5.442;2023-05-31T05:33:07;102746.00;;;11.48;85.22
71966;BME280;59836;52.132;5.442;2023-05-31T05:35:33;102744.47;;;11.52;85.05
71966;BME280;59836;52.132;5.442;2023-05-31T05:38:00;102741.06;;;11.57;85.33
71966;BME280;59836;52.132;5.442;2023-05-31T05:40:26;102746.88;;;11.60;85.37
71966;BME280;59836;52.132;5.442;2023-05-31T05:42:53;102745.56;;;11.63;85.24
71966;BME280;59836;52.132;5.442;2023-05-31T05:45:20;102752.22;;;11.67;85.46
71966;BME280;59836;52.132;5.442;2023-05-31T05:47:46;102752.94;;;11.74;84.85
71966;BME280;59836;52.132;5.442;2023-05-31T05:50:15;102754.97;;;11.79;85.06
71966;BME280;59836;52.132;5.442;2023-05-31T05:52:41;102761.59;;;11.83;85.10
71966;BME280;59836;52.132;5.442;2023-05-31T05:55:08;102758.19;;;11.88;84.96
71966;BME280;59836;52.132;5.442;2023-05-31T05:57:34;102750.19;;;11.93;85.14
71966;BME280;59836;52.132;5.442;2023-05-31T06:00:01;102744.28;;;11.96;85.06
71966;BME280;59836;52.132;5.442;2023-05-31T06:02:31;102749.63;;;12.03;84.54
71966;BME280;59836;52.132;5.442;2023-05-31T06:04:58;102748.97;;;12.07;85.20
71966;BME280;59836;52.132;5.442;2023-05-31T06:07:25;102745.31;;;12.14;84.64
71966;BME280;59836;52.132;5.442;2023-05-31T06:09:51;102744.34;;;12.20;85.05
71966;BME280;59836;52.132;5.442;2023-05-31T06:12:19;102749.44;;;12.28;85.16
71966;BME280;59836;52.132;5.442;2023-05-31T06:14:45;102750.63;;;12.32;85.05
71966;BME280;59836;52.132;5.442;2023-05-31T06:17:12;102750.78;;;12.37;84.86
71966;BME280;59836;52.132;5.442;2023-05-31T06:19:38;102746.03;;;12.45;85.13
71966;BME280;59836;52.132;5.442;2023-05-31T06:22:05;102753.28;;;12.51;85.30
71966;BME280;59836;52.132;5.442;2023-05-31T06:24:31;102749.59;;;12.57;84.79
71966;BME280;59836;52.132;5.442;2023-05-31T06:26:58;102747.25;;;12.61;84.73
71966;BME280;59836;52.132;5.442;2023-05-31T06:29:24;102746.31;;;12.67;84.29
71966;BME280;59836;52.132;5.442;2023-05-31T06:31:51;102746.19;;;12.74;84.16
71966;BME280;59836;52.132;5.442;2023-05-31T06:34:18;102733.75;;;12.78;83.71
71966;BME280;59836;52.132;5.442;2023-05-31T06:36:45;102742.03;;;12.83;83.44
71966;BME280;59836;52.132;5.442;2023-05-31T06:39:11;102730.19;;;12.89;83.76
71966;BME280;59836;52.132;5.442;2023-05-31T06:41:37;102734.69;;;12.95;83.78
71966;BME280;59836;52.132;5.442;2023-05-31T06:44:04;102729.09;;;13.02;83.50
71966;BME280;59836;52.132;5.442;2023-05-31T06:46:30;102736.56;;;13.07;83.60
71966;BME280;59836;52.132;5.442;2023-05-31T06:48:57;102738.56;;;13.11;83.53
71966;BME280;59836;52.132;5.442;2023-05-31T06:51:37;102743.88;;;13.18;83.43
71966;BME280;59836;52.132;5.442;2023-05-31T06:54:04;102740.44;;;13.23;83.44
71966;BME280;59836;52.132;5.442;2023-05-31T06:56:31;102743.00;;;13.29;83.17
71966;BME280;59836;52.132;5.442;2023-05-31T06:58:57;102740.97;;;13.37;82.63
71966;BME280;59836;52.132;5.442;2023-05-31T07:01:24;102737.75;;;13.40;83.02
71966;BME280;59836;52.132;5.442;2023-05-31T07:03:51;102737.91;;;13.45;82.50
71966;BME280;59836;52.132;5.442;2023-05-31T07:06:18;102748.69;;;13.52;82.28
71966;BME280;59836;52.132;5.442;2023-05-31T07:08:47;102741.41;;;13.57;81.90
71966;BME280;59836;52.132;5.442;2023-05-31T07:11:14;102746.75;;;13.64;82.37
71966;BME280;59836;52.132;5.442;2023-05-31T07:13:40;102738.41;;;13.71;82.16
71966;BME280;59836;52.132;5.442;2023-05-31T07:16:07;102748.34;;;13.77;82.00
71966;BME280;59836;52.132;5.442;2023-05-31T07:18:33;102733.72;;;13.83;81.66
71966;BME280;59836;52.132;5.442;2023-05-31T07:21:00;102727.50;;;13.88;81.21
71966;BME280;59836;52.132;5.442;2023-05-31T07:23:27;102738.88;;;13.97;80.99
71966;BME280;59836;52.132;5.442;2023-05-31T07:25:54;102735.75;;;14.05;80.78
71966;BME280;59836;52.132;5.442;2023-05-31T07:28:20;102739.13;;;14.12;80.46
71966;BME280;59836;52.132;5.442;2023-05-31T07:30:46;102734.56;;;14.18;79.57
71966;BME280;59836;52.132;5.442;2023-05-31T07:33:13;102743.19;;;14.27;80.40
71966;BME280;59836;52.132;5.442;2023-05-31T07:35:49;102734.56;;;14.35;79.60
71966;BME280;59836;52.132;5.442;2023-05-31T07:38:24;102737.38;;;14.40;78.58
71966;BME280;59836;52.132;5.442;2023-05-31T07:40:50;102736.38;;;14.46;79.38
71966;BME280;59836;52.132;5.442;2023-05-31T07:43:17;102740.34;;;14.56;78.92
71966;BME280;59836;52.132;5.442;2023-05-31T07:45:48;102741.28;;;14.61;77.55
71966;BME280;59836;52.132;5.442;2023-05-31T07:48:16;102730.16;;;14.68;77.81
71966;BME280;59836;52.132;5.442;2023-05-31T07:50:44;102728.09;;;14.75;77.71
71966;BME280;59836;52.132;5.442;2023-05-31T07:53:10;102728.75;;;14.83;77.68
71966;BME280;59836;52.132;5.442;2023-05-31T07:55:37;102717.91;;;14.88;77.96
71966;BME280;59836;52.132;5.442;2023-05-31T07:58:03;102716.91;;;14.94;77.08
71966;BME280;59836;52.132;5.442;2023-05-31T08:00:30;102721.91;;;15.02;76.69
71966;BME280;59836;52.132;5.442;2023-05-31T08:03:00;102711.63;;;15.10;76.80
71966;BME280;59836;52.132;5.442;2023-05-31T08:05:26;102713.34;;;15.16;76.27
71966;BME280;59836;52.132;5.442;2023-05-31T08:07:53;102711.25;;;15.23;76.98
71966;BME280;59836;52.132;5.442;2023-05-31T08:10:19;102710.22;;;15.29;76.15
71966;BME280;59836;52.132;5.442;2023-05-31T08:12:47;102716.31;;;15.37;75.85
71966;BME280;59836;52.132;5.442;2023-05-31T08:15:13;102706.81;;;15.44;76.36
71966;BME280;59836;52.132;5.442;2023-05-31T08:17:40;102694.34;;;15.54;75.82
71966;BME280;59836;52.132;5.442;2023-05-31T08:20:09;102695.78;;;15.61;75.73
71966;BME280;59836;52.132;5.442;2023-05-31T08:22:36;102702.94;;;15.68;75.22
71966;BME280;59836;52.132;5.442;2023-05-31T08:25:03;102699.75;;;15.76;74.72
71966;BME280;59836;52.132;5.442;2023-05-31T08:27:29;102697.34;;;15.79;75.00
71966;BME280;59836;52.132;5.442;2023-05-31T08:29:56;102687.84;;;15.87;74.97
71966;BME280;59836;52.132;5.442;2023-05-31T08:32:22;102693.09;;;15.94;74.39
71966;BME280;59836;52.132;5.442;2023-05-31T08:34:49;102691.25;;;16.00;74.78
71966;BME280;59836;52.132;5.442;2023-05-31T08:37:15;102696.47;;;16.06;75.14
71966;BME280;59836;52.132;5.442;2023-05-31T08:39:42;102699.53;;;16.10;74.16
71966;BME280;59836;52.132;5.442;2023-05-31T08:42:18;102690.81;;;16.13;74.45
71966;BME280;59836;52.132;5.442;2023-05-31T08:44:47;102686.44;;;16.17;74.51
71966;BME280;59836;52.132;5.442;2023-05-31T08:47:36;102695.28;;;16.25;74.28
71966;BME280;59836;52.132;5.442;2023-05-31T08:50:04;102696.13;;;16.30;74.49
71966;BME280;59836;52.132;5.442;2023-05-31T08:52:31;102683.81;;;16.33;74.26
71966;BME280;59836;52.132;5.442;2023-05-31T08:54:58;102683.34;;;16.41;75.45
71966;BME280;59836;52.132;5.442;2023-05-31T08:57:25;102679.50;;;16.47;74.20
71966;BME280;59836;52.132;5.442;2023-05-31T08:59:53;102682.03;;;16.54;74.23
71966;BME280;59836;52.132;5.442;2023-05-31T09:02:19;102682.88;;;16.60;74.36
71966;BME280;59836;52.132;5.442;2023-05-31T09:04:47;102679.59;;;16.63;73.92
71966;BME280;59836;52.132;5.442;2023-05-31T09:07:13;102683.47;;;16.67;73.42
71966;BME280;59836;52.132;5.442;2023-05-31T09:09:40;102673.09;;;16.74;73.66
71966;BME280;59836;52.132;5.442;2023-05-31T09:12:07;102676.13;;;16.78;73.72
71966;BME280;59836;52.132;5.442;2023-05-31T09:14:34;102678.63;;;16.85;73.50
71966;BME280;59836;52.132;5.442;2023-05-31T09:17:00;102679.72;;;16.89;74.12
71966;BME280;59836;52.132;5.442;2023-05-31T09:19:27;102670.44;;;16.95;73.20
71966;BME280;59836;52.132;5.442;2023-05-31T09:21:53;102672.69;;;16.98;73.00
71966;BME280;59836;52.132;5.442;2023-05-31T09:24:20;102666.66;;;17.01;73.08
71966;BME280;59836;52.132;5.442;2023-05-31T09:29:14;102661.78;;;17.14;72.26
71966;BME280;59836;52.132;5.442;2023-05-31T09:31:42;102657.66;;;17.16;71.73
71966;BME280;59836;52.132;5.442;2023-05-31T09:34:24;102655.75;;;17.22;72.22
71966;BME280;59836;52.132;5.442;2023-05-31T09:36:56;102654.69;;;17.28;72.47
71966;BME280;59836;52.132;5.442;2023-05-31T09:39:23;102656.34;;;17.34;73.08
71966;BME280;59836;52.132;5.442;2023-05-31T09:41:51;102651.97;;;17.44;72.60
71966;BME280;59836;52.132;5.442;2023-05-31T09:44:18;102660.22;;;17.49;72.74
71966;BME280;59836;52.132;5.442;2023-05-31T09:46:45;102656.91;;;17.57;71.42
71966;BME280;59836;52.132;5.442;2023-05-31T09:49:13;102649.78;;;17.61;71.36
71966;BME280;59836;52.132;5.442;2023-05-31T09:51:39;102655.81;;;17.63;71.40
71966;BME280;59836;52.132;5.442;2023-05-31T09:54:10;102649.78;;;17.66;71.05
71966;BME280;59836;52.132;5.442;2023-05-31T09:56:38;102636.06;;;17.71;70.80
71966;BME280;59836;52.132;5.442;2023-05-31T09:59:06;102639.91;;;17.81;70.15
71966;BME280;59836;52.132;5.442;2023-05-31T10:01:34;102637.16;;;17.86;69.91
71966;BME280;59836;52.132;5.442;2023-05-31T10:04:03;102647.59;;;17.89;70.41
71966;BME280;59836;52.132;5.442;2023-05-31T10:06:30;102638.81;;;17.92;69.68
71966;BME280;59836;52.132;5.442;2023-05-31T10:09:02;102642.66;;;18.02;69.77
71966;BME280;59836;52.132;5.442;2023-05-31T10:11:33;102634.44;;;18.07;68.66
71966;BME280;59836;52.132;5.442;2023-05-31T10:14:09;102633.88;;;18.10;69.03
71966;BME280;59836;52.132;5.442;2023-05-31T10:16:45;102636.06;;;18.13;69.34
71966;BME280;59836;52.132;5.442;2023-05-31T10:19:18;102617.94;;;18.17;70.06
71966;BME280;59836;52.132;5.442;2023-05-31T10:21:47;102620.66;;;18.27;69.28
71966;BME280;59836;52.132;5.442;2023-05-31T10:24:28;102618.47;;;18.29;68.28
71966;BME280;59836;52.132;5.442;2023-05-31T10:29:48;102610.19;;;18.45;68.04
71966;BME280;59836;52.132;5.442;2023-05-31T10:32:26;102612.34;;;18.53;67.55
71966;BME280;59836;52.132;5.442;2023-05-31T10:34:53;102603.50;;;18.56;67.19
71966;BME280;59836;52.132;5.442;2023-05-31T10:37:21;102601.88;;;18.55;67.47
71966;BME280;59836;52.132;5.442;2023-05-31T10:40:07;102603.50;;;18.62;68.47
71966;BME280;59836;52.132;5.442;2023-05-31T10:43:02;102600.69;;;18.72;67.69
71966;BME280;59836;52.132;5.442;2023-05-31T10:45:36;102597.13;;;18.77;67.27
71966;BME280;59836;52.132;5.442;2023-05-31T10:48:19;102599.56;;;18.83;66.48
71966;BME280;59836;52.132;5.442;2023-05-31T10:51:00;102590.16;;;18.89;66.31
71966;BME280;59836;52.132;5.442;2023-05-31T10:53:30;102593.19;;;18.93;65.70
71966;BME280;59836;52.132;5.442;2023-05-31T10:56:04;102595.09;;;18.98;65.72
71966;BME280;59836;52.132;5.442;2023-05-31T10:58:39;102577.47;;;19.04;64.71
71966;BME280;59836;52.132;5.442;2023-05-31T11:01:13;102574.47;;;19.00;65.09
71966;BME280;59836;52.132;5.442;2023-05-31T11:03:56;102577.47;;;19.04;65.66
71966;BME280;59836;52.132;5.442;2023-05-31T11:06:29;102571.94;;;19.09;64.42
71966;BME280;59836;52.132;5.442;2023-05-31T11:08:57;102570.78;;;19.15;65.46
71966;BME280;59836;52.132;5.442;2023-05-31T11:14:07;102561.91;;;19.29;64.81
71966;BME280;59836;52.132;5.442;2023-05-31T11:19:34;102553.78;;;19.43;63.50
71966;BME280;59836;52.132;5.442;2023-05-31T11:22:14;102552.13;;;19.47;63.58
71966;BME280;59836;52.132;5.442;2023-05-31T11:24:51;102560.91;;;19.49;63.49
71966;BME280;59836;52.132;5.442;2023-05-31T11:32:19;102542.66;;;19.58;62.83
71966;BME280;59836;52.132;5.442;2023-05-31T11:34:54;102543.50;;;19.59;63.40
71966;BME280;59836;52.132;5.442;2023-05-31T11:37:33;102543.94;;;19.66;63.44
71966;BME280;59836;52.132;5.442;2023-05-31T11:40:02;102542.78;;;19.72;62.60
71966;BME280;59836;52.132;5.442;2023-05-31T11:42:34;102535.06;;;19.74;62.84
71966;BME280;59836;52.132;5.442;2023-05-31T11:45:03;102531.44;;;19.79;61.69
71966;BME280;59836;52.132;5.442;2023-05-31T11:47:39;102532.44;;;19.88;61.83
71966;BME280;59836;52.132;5.442;2023-05-31T11:50:10;102529.41;;;19.90;61.65
71966;BME280;59836;52.132;5.442;2023-05-31T11:52:39;102532.44;;;19.94;61.76
71966;BME280;59836;52.132;5.442;2023-05-31T11:55:07;102533.25;;;19.94;60.92
71966;BME280;59836;52.132;5.442;2023-05-31T11:57:48;102527.97;;;19.98;61.61
71966;BME280;59836;52.132;5.442;2023-05-31T12:00:18;102528.19;;;20.01;60.55
71966;BME280;59836;52.132;5.442;2023-05-31T12:02:52;102529.25;;;20.05;60.83
71966;BME280;59836;52.132;5.442;2023-05-31T12:05:19;102519.88;;;20.06;59.90
71966;BME280;59836;52.132;5.442;2023-05-31T12:07:46;102513.56;;;20.06;60.65
71966;BME280;59836;52.132;5.442;2023-05-31T12:10:15;102523.16;;;20.09;61.18
71966;BME280;59836;52.132;5.442;2023-05-31T12:12:42;102512.59;;;20.16;59.94
71966;BME280;59836;52.132;5.442;2023-05-31T12:15:12;102516.16;;;20.16;60.35
71966;BME280;59836;52.132;5.442;2023-05-31T12:17:39;102509.53;;;20.17;59.69
71966;BME280;59836;52.132;5.442;2023-05-31T12:20:06;102504.63;;;20.14;60.21
71966;BME280;59836;52.132;5.442;2023-05-31T12:22:34;102497.13;;;20.20;58.78
71966;BME280;59836;52.132;5.442;2023-05-31T12:25:01;102505.34;;;20.25;59.05
71966;BME280;59836;52.132;5.442;2023-05-31T12:27:27;102486.56;;;20.27;58.63
71966;BME280;59836;52.132;5.442;2023-05-31T12:30:16;102486.56;;;20.27;58.52
71966;BME280;59836;52.132;5.442;2023-05-31T12:32:44;102487.84;;;20.35;58.89
71966;BME280;59836;52.132;5.442;2023-05-31T12:35:11;102488.28;;;20.42;58.33
71966;BME280;59836;52.132;5.442;2023-05-31T12:37:39;102483.81;;;20.46;57.42
71966;BME280;59836;52.132;5.442;2023-05-31T12:40:10;102487.69;;;20.45;57.92
71966;BME280;59836;52.132;5.442;2023-05-31T12:42:37;102475.56;;;20.46;58.79
71966;BME280;59836;52.132;5.442;2023-05-31T12:45:05;102475.28;;;20.48;58.70
71966;BME280;59836;52.132;5.442;2023-05-31T12:47:33;102472.53;;;20.48;57.91
71966;BME280;59836;52.132;5.442;2023-05-31T12:50:09;102470.56;;;20.48;58.29
71966;BME280;59836;52.132;5.442;2023-05-31T12:52:37;102475.28;;;20.48;57.43
71966;BME280;59836;52.132;5.442;2023-05-31T12:55:07;102476.91;;;20.49;58.51
71966;BME280;59836;52.132;5.442;2023-05-31T12:57:34;102464.09;;;20.58;58.03
71966;BME280;59836;52.132;5.442;2023-05-31T13:00:05;102475.94;;;20.59;58.12
71966;BME280;59836;52.132;5.442;2023-05-31T13:02:37;102464.09;;;20.58;57.89
71966;BME280;59836;52.132;5.442;2023-05-31T13:05:05;102464.03;;;20.63;56.75
71966;BME280;59836;52.132;5.442;2023-05-31T13:07:33;102455.16;;;20.67;57.62
71966;BME280;59836;52.132;5.442;2023-05-31T13:10:04;102463.31;;;20.72;56.64
71966;BME280;59836;52.132;5.442;2023-05-31T13:12:38;102451.69;;;20.75;56.78
71966;BME280;59836;52.132;5.442;2023-05-31T13:15:05;102454.91;;;20.82;56.48
71966;BME280;59836;52.132;5.442;2023-05-31T13:17:31;102457.69;;;20.82;56.20